NCAR-RAP Real-Time Weather Data

Output produced by METARs form (19 June 2019  11:30 UTC)
found at http://weather.rap.ucar.edu/surface/
 
KPIR 191053Z AUTO 15004KT 10SM OVC110 16/12 A2980 RMK AO2 SLP081 T01560122
KPIR 190953Z AUTO 12004KT 10SM FEW095 16/12 A2980 RMK AO2 SLP079 T01560117
KPIR 190853Z AUTO 17007KT 10SM OVC110 17/12 A2981 RMK AO2 SLP086 T01670117 58019
KPIR 190753Z AUTO 15006KT 10SM SCT070 BKN120 17/11 A2984 RMK AO2 SLP094 T01670111
KPIR 190653Z AUTO 18008KT 10SM CLR 18/11 A2985 RMK AO2 SLP099 T01780111
KPIR 190553Z AUTO 16010KT 10SM CLR 18/12 A2987 RMK AO2 SLP106 T01830117 10239 20172 402500089 58003
KPIR 190453Z AUTO 15009KT 10SM CLR 19/12 A2989 RMK AO2 SLP111 T01890117
KPIR 190353Z AUTO 14007KT 10SM CLR 18/12 A2989 RMK AO2 SLP113 T01780122
KPIR 190253Z AUTO 13006KT 10SM CLR 18/13 A2988 RMK AO2 SLP111 T01830128 53001
KPIR 190153Z AUTO 13007KT 10SM FEW055 19/13 A2988 RMK AO2 SLP113 T01940128
KPIR 190053Z AUTO 14009G16KT 10SM CLR 23/13 A2988 RMK AO2 SLP110 T02280128
KPIR 182353Z AUTO 14010KT 10SM CLR 24/12 A2988 RMK AO2 SLP112 T02390122 10250 20222 56016
KPIR 182253Z AUTO 14012KT 10SM FEW050 25/13 A2989 RMK AO2 SLP113 T02500128
KPIR 182153Z AUTO 15008G16KT 10SM CLR 24/12 A2990 RMK AO2 SLP120 T02440122
KPIR 182053Z AUTO 17009KT 10SM SCT050 24/12 A2993 RMK AO2 SLP128 T02440122 58019
KPIR 181953Z AUTO 10SM FEW048 BKN100 24/12 A2995 RMK AO2 SLP135 T02390122
KPIR 181853Z AUTO VRB05KT 10SM BKN047 BKN100 24/12 A2997 RMK AO2 SLP143 T02390122
KPIR 181753Z AUTO VRB03KT 10SM FEW046 SCT095 23/12 A2999 RMK AO2 SLP148 T02280117 10228 20106 56015
KPIR 181653Z AUTO 19005KT 10SM FEW033 OVC095 22/13 A3000 RMK AO2 SLP153 T02170128
KPIR 181553Z AUTO 14006KT 10SM SCT110 20/14 A3001 RMK AO2 SLP157 T02000139
KPIR 181453Z AUTO 13006KT 10SM BKN100 18/13 A3003 RMK AO2 SLP164 T01780128 50001